今朝の羽田(2017/04/18)

QFA25/VH-OEE(B744)

ANA880/JA877A(B789)

ANA968/JA834A(B788)

JAL36/JA703J(B772)

HKE624/B-LEA(A321)

ANA8554/JA816A(B788)

ANA850/JA882A(B789)

JAL34/JA701J(B772)

*TTW217/B-50015(A320)

ANA844/JA884A(B789)

*SKY01A/JA73NP(B738)

*ANA9005/JA712A(B772)

ANA204/JA786A(B77W)

*ANA9061/JA8654(A320)

ANA856/JA888A(B789)

*AAR177/HL8071(A321)

THA682/HS-TGP(B744)

SIA636/9V-SWY(B77W)

JAL70/JA831J(B788)

*HKE625/B-LEA(A321)

BAW7/G-STBG(B77W)

RJTT 172000Z 21024G35KT 9999 -SHRA FEW005 BKN010 19/18 Q0993 TEMPO 19034G46KT RMK 1ST005 7CU010 A2933

RJTT 172100Z 19026KT 3500 SHRA BR FEW004 BKN006 BKN012 18/18 Q0992 TEMPO 19034G46KT RMK 1ST004 6ST006 7ST012 A2930

RJTT 172200Z 19028KT 6000 -SHRA FEW005 SCT008 BKN015 18/18 Q0990 TEMPO 19034G46KT 4000 -SHRA BR FEW005 BKN008

今朝の羽田は暴風雨です。